createdAt,value
2023-04-15T00:01:41.950Z,5.32
2023-04-15T00:04:09.210Z,5.31
2023-04-15T00:06:37.839Z,5.29
2023-04-15T00:09:05.385Z,5.26
2023-04-15T00:11:32.603Z,5.21
2023-04-15T00:13:59.799Z,5.20
2023-04-15T00:16:27.136Z,5.20
2023-04-15T00:18:54.462Z,5.19
2023-04-15T00:21:21.920Z,5.14
2023-04-15T00:23:49.038Z,5.13
2023-04-15T00:26:16.253Z,5.14
2023-04-15T00:28:43.572Z,5.14
2023-04-15T00:31:11.098Z,5.16
2023-04-15T00:33:38.578Z,5.13
2023-04-15T00:36:07.725Z,5.15
2023-04-15T00:38:34.954Z,5.13
2023-04-15T00:41:03.702Z,5.14
2023-04-15T00:43:30.917Z,5.14
2023-04-15T00:46:01.124Z,5.13
2023-04-15T00:48:29.165Z,5.11
2023-04-15T00:50:56.333Z,5.10
2023-04-15T00:53:23.815Z,5.10
2023-04-15T00:55:51.227Z,5.13
2023-04-15T00:58:19.407Z,5.13
2023-04-15T01:00:47.231Z,5.12
2023-04-15T01:03:14.608Z,5.09
2023-04-15T01:05:41.902Z,5.11
2023-04-15T01:08:09.117Z,5.09
2023-04-15T01:10:36.665Z,5.10
2023-04-15T01:13:04.402Z,5.10
2023-04-15T01:15:31.803Z,5.09
2023-04-15T01:18:00.208Z,5.09
2023-04-15T01:20:28.935Z,5.07
2023-04-15T01:22:56.679Z,5.09
2023-04-15T01:25:34.303Z,5.07
2023-04-15T01:28:02.089Z,5.07
2023-04-15T01:30:29.544Z,5.05
2023-04-15T01:32:56.805Z,5.02
2023-04-15T01:35:24.325Z,5.01
2023-04-15T01:37:51.971Z,5.03
2023-04-15T01:40:19.421Z,5.03
2023-04-15T01:42:46.932Z,5.04
2023-04-15T01:45:14.195Z,5.01
2023-04-15T01:47:41.686Z,5.01
2023-04-15T01:50:09.577Z,4.97
2023-04-15T01:52:36.797Z,5.00
2023-04-15T01:55:04.462Z,4.92
2023-04-15T01:57:31.678Z,4.96
2023-04-15T01:59:58.890Z,4.97
2023-04-15T02:02:26.183Z,4.99
2023-04-15T02:04:53.341Z,4.95
2023-04-15T02:07:20.567Z,4.99
2023-04-15T02:09:47.898Z,4.98
2023-04-15T02:12:15.093Z,5.00
2023-04-15T02:14:42.284Z,5.00
2023-04-15T02:17:09.538Z,5.01
2023-04-15T02:19:36.838Z,5.04
2023-04-15T02:22:04.516Z,5.06
2023-04-15T02:24:32.067Z,5.06
2023-04-15T02:26:59.424Z,5.06
2023-04-15T02:29:26.782Z,5.07
2023-04-15T02:31:54.150Z,5.07
2023-04-15T02:34:21.509Z,5.06
2023-04-15T02:36:48.727Z,5.09
2023-04-15T02:39:15.933Z,5.08
2023-04-15T02:41:43.504Z,5.04
2023-04-15T02:44:11.452Z,5.03
2023-04-15T02:46:38.779Z,5.04
2023-04-15T02:49:06.237Z,5.06
2023-04-15T02:51:33.472Z,5.07
2023-04-15T02:54:00.627Z,5.05
2023-04-15T02:56:27.996Z,5.06
2023-04-15T02:58:55.293Z,5.06
2023-04-15T03:01:22.542Z,5.09
2023-04-15T03:03:49.923Z,5.09
2023-04-15T03:06:17.238Z,5.07
2023-04-15T03:08:44.433Z,5.07
2023-04-15T03:11:11.665Z,5.02
2023-04-15T03:13:38.988Z,4.99
2023-04-15T03:16:06.990Z,5.01
2023-04-15T03:18:34.318Z,5.01
2023-04-15T03:21:01.689Z,5.00
2023-04-15T03:23:29.179Z,4.98
2023-04-15T03:25:56.386Z,4.97
2023-04-15T03:28:24.279Z,4.96
2023-04-15T03:30:51.504Z,4.96
2023-04-15T03:33:18.732Z,4.97
2023-04-15T03:35:46.039Z,4.98
2023-04-15T03:38:13.264Z,4.99
2023-04-15T03:40:44.426Z,4.98
2023-04-15T03:43:11.743Z,4.96
2023-04-15T03:45:39.161Z,4.96
2023-04-15T03:48:16.466Z,4.93
2023-04-15T03:50:44.858Z,4.95
2023-04-15T03:53:12.231Z,4.95
2023-04-15T03:55:39.488Z,4.97
2023-04-15T03:58:06.712Z,4.96
2023-04-15T04:00:33.937Z,4.96
2023-04-15T04:03:01.279Z,4.98
2023-04-15T04:05:29.060Z,5.01
2023-04-15T04:07:56.567Z,4.98
2023-04-15T04:10:23.806Z,4.98
2023-04-15T04:12:51.162Z,4.98
2023-04-15T04:15:18.480Z,4.97
2023-04-15T04:17:45.993Z,4.96
2023-04-15T04:20:13.425Z,4.98
2023-04-15T04:22:41.335Z,4.98
2023-04-15T04:25:09.920Z,5.01
2023-04-15T04:27:37.513Z,5.02
2023-04-15T04:30:06.479Z,5.02
2023-04-15T04:32:33.746Z,5.01
2023-04-15T04:35:00.950Z,4.99
2023-04-15T04:37:28.211Z,5.01
2023-04-15T04:39:55.432Z,5.00
2023-04-15T04:42:23.086Z,4.99
2023-04-15T04:44:50.385Z,4.93
2023-04-15T04:47:17.679Z,4.96
2023-04-15T04:49:45.063Z,4.93
2023-04-15T04:52:12.638Z,4.95
2023-04-15T04:54:39.813Z,4.98
2023-04-15T04:57:07.005Z,4.98
2023-04-15T04:59:34.484Z,4.98
2023-04-15T05:02:01.942Z,5.01
2023-04-15T05:04:29.215Z,5.00
2023-04-15T05:06:56.412Z,4.96
2023-04-15T05:09:23.766Z,4.92
2023-04-15T05:11:50.946Z,4.93
2023-04-15T05:14:18.201Z,4.91
2023-04-15T05:16:45.552Z,4.92
2023-04-15T05:19:12.720Z,4.95
2023-04-15T05:21:40.024Z,4.96
2023-04-15T05:24:07.331Z,4.95
2023-04-15T05:26:34.516Z,4.90
2023-04-15T05:29:02.156Z,4.93
2023-04-15T05:31:30.061Z,4.93
2023-04-15T05:33:57.422Z,4.92
2023-04-15T05:36:24.781Z,4.96
2023-04-15T05:38:54.334Z,4.98
2023-04-15T05:41:21.833Z,4.98
2023-04-15T05:43:49.070Z,4.99
2023-04-15T05:46:16.510Z,5.01
2023-04-15T05:48:43.716Z,4.98
2023-04-15T05:51:11.110Z,5.01
2023-04-15T05:53:38.454Z,5.01
2023-04-15T05:56:05.800Z,5.08
2023-04-15T05:58:33.112Z,5.10
2023-04-15T06:01:00.506Z,5.11
2023-04-15T06:03:27.809Z,5.12
2023-04-15T06:05:55.256Z,5.15
2023-04-15T06:08:22.568Z,5.15
2023-04-15T06:10:49.852Z,5.19
2023-04-15T06:13:17.476Z,5.22
2023-04-15T06:15:44.846Z,5.22
2023-04-15T06:18:12.304Z,5.30
2023-04-15T06:20:41.963Z,5.34
2023-04-15T06:23:09.485Z,5.35
2023-04-15T06:25:36.715Z,5.42
2023-04-15T06:28:04.280Z,5.45
2023-04-15T06:30:31.908Z,5.49
2023-04-15T06:32:59.285Z,5.52
2023-04-15T06:35:28.177Z,5.54
2023-04-15T06:37:55.398Z,5.59
2023-04-15T06:40:22.753Z,5.61
2023-04-15T06:42:50.004Z,5.65
2023-04-15T06:45:17.347Z,5.65
2023-04-15T06:47:45.810Z,5.69
2023-04-15T06:50:12.994Z,5.72
2023-04-15T06:52:40.484Z,5.74
2023-04-15T06:55:08.421Z,5.75
2023-04-15T06:57:35.745Z,5.81
2023-04-15T07:00:03.756Z,5.84
2023-04-15T07:02:31.522Z,5.88
2023-04-15T07:05:02.463Z,5.89
2023-04-15T07:07:31.279Z,5.94
2023-04-15T07:09:59.804Z,5.98
2023-04-15T07:12:26.952Z,6.02
2023-04-15T07:14:54.126Z,6.06
2023-04-15T07:17:22.379Z,6.03
2023-04-15T07:19:49.656Z,6.05
2023-04-15T07:22:17.057Z,6.09
2023-04-15T07:24:44.758Z,6.03
2023-04-15T07:27:12.378Z,6.01
2023-04-15T07:29:39.536Z,5.86
2023-04-15T07:32:06.775Z,6.04
2023-04-15T07:34:34.068Z,5.99
2023-04-15T07:37:01.269Z,5.90
2023-04-15T07:39:28.420Z,5.94
2023-04-15T07:41:55.804Z,5.96
2023-04-15T07:44:23.126Z,5.96
2023-04-15T07:46:50.331Z,5.99
2023-04-15T07:49:17.569Z,6.07
2023-04-15T07:51:44.862Z,5.97
2023-04-15T07:54:12.018Z,6.10
2023-04-15T07:56:39.180Z,6.04
2023-04-15T07:59:06.403Z,6.15
2023-04-15T08:01:33.734Z,6.15
2023-04-15T08:04:01.235Z,6.09
2023-04-15T08:06:28.514Z,6.22
2023-04-15T08:08:55.804Z,6.29
2023-04-15T08:11:23.144Z,6.36
2023-04-15T08:13:50.524Z,6.36
2023-04-15T08:16:23.761Z,6.30
2023-04-15T08:18:53.981Z,6.34
2023-04-15T08:21:21.550Z,6.34
2023-04-15T08:23:51.525Z,6.44
2023-04-15T08:26:20.767Z,6.48
2023-04-15T08:28:49.223Z,6.51
2023-04-15T08:31:18.561Z,6.58
2023-04-15T08:33:46.785Z,6.63
2023-04-15T08:36:14.048Z,6.59
2023-04-15T08:38:41.306Z,6.66
2023-04-15T08:41:25.384Z,6.78
2023-04-15T08:44:06.793Z,6.88
2023-04-15T08:46:34.139Z,6.90
2023-04-15T08:49:05.132Z,6.91
2023-04-15T08:51:33.020Z,7.01
2023-04-15T08:54:02.074Z,7.07
2023-04-15T08:56:33.045Z,7.15
2023-04-15T08:59:01.402Z,7.24
2023-04-15T09:01:29.629Z,7.33
2023-04-15T09:03:59.043Z,7.39
2023-04-15T09:06:26.852Z,7.40
2023-04-15T09:08:54.188Z,7.41
2023-04-15T09:11:22.905Z,7.52
2023-04-15T09:13:50.750Z,7.38
2023-04-15T09:16:18.113Z,7.43
2023-04-15T09:18:45.518Z,7.54
2023-04-15T09:21:16.514Z,7.62
2023-04-15T09:24:01.705Z,7.48
2023-04-15T09:26:39.147Z,7.56
2023-04-15T09:29:12.912Z,7.53
2023-04-15T09:31:41.498Z,7.57
2023-04-15T09:34:09.218Z,7.61
2023-04-15T09:36:55.212Z,7.77
2023-04-15T09:39:22.554Z,7.80
2023-04-15T09:42:08.778Z,7.79
2023-04-15T09:44:36.100Z,7.84
2023-04-15T09:47:03.305Z,7.85
2023-04-15T09:49:30.521Z,7.86
2023-04-15T09:52:06.147Z,7.90
2023-04-15T09:54:38.709Z,7.94
2023-04-15T09:57:09.705Z,8.11
2023-04-15T09:59:36.887Z,8.10
2023-04-15T10:02:07.434Z,8.04
2023-04-15T10:04:40.512Z,8.18
2023-04-15T10:07:09.595Z,8.24
2023-04-15T10:09:39.461Z,8.36
2023-04-15T10:12:06.960Z,8.36
2023-04-15T10:14:38.575Z,8.47
2023-04-15T10:17:07.976Z,8.52
2023-04-15T10:19:38.430Z,8.69
2023-04-15T10:22:07.010Z,8.87
2023-04-15T10:24:35.081Z,8.97
2023-04-15T10:27:05.223Z,8.84
2023-04-15T10:29:32.848Z,8.96
2023-04-15T10:32:01.672Z,8.96
2023-04-15T10:34:31.876Z,9.01
2023-04-15T10:37:02.985Z,9.06
2023-04-15T10:39:38.048Z,9.11
2023-04-15T10:42:14.421Z,9.11
2023-04-15T10:44:50.931Z,9.06
2023-04-15T10:47:21.481Z,8.98
2023-04-15T10:49:58.132Z,9.01
2023-04-15T10:52:28.539Z,9.01
2023-04-15T10:55:10.815Z,8.91
2023-04-15T10:57:42.919Z,9.02
2023-04-15T11:00:18.872Z,8.84
2023-04-15T11:02:59.304Z,8.89
2023-04-15T11:05:53.009Z,8.86
2023-04-15T11:08:40.939Z,8.97
2023-04-15T11:11:08.395Z,8.92
2023-04-15T11:13:35.704Z,8.99
2023-04-15T11:16:03.945Z,9.01
2023-04-15T11:18:33.840Z,9.02
2023-04-15T11:21:04.858Z,8.87
2023-04-15T11:23:43.370Z,9.05
2023-04-15T11:26:11.535Z,9.03
2023-04-15T11:28:44.653Z,9.02
2023-04-15T11:31:17.219Z,9.13
2023-04-15T11:33:56.705Z,9.12
2023-04-15T11:36:30.107Z,9.16
2023-04-15T11:38:59.626Z,9.13
2023-04-15T11:41:27.201Z,9.15
2023-04-15T11:43:54.593Z,9.21
2023-04-15T11:46:29.138Z,9.25
2023-04-15T11:48:56.349Z,9.32
2023-04-15T11:51:23.973Z,9.34
2023-04-15T11:53:51.711Z,9.40
2023-04-15T11:56:22.142Z,9.36
2023-04-15T11:58:55.715Z,9.34
2023-04-15T12:01:41.417Z,9.39
2023-04-15T12:04:18.665Z,9.49
2023-04-15T12:06:47.474Z,9.54
2023-04-15T12:09:18.773Z,9.60
2023-04-15T12:11:52.917Z,9.61
2023-04-15T12:14:29.799Z,9.60
2023-04-15T12:17:04.387Z,9.57
2023-04-15T12:19:40.417Z,9.53
2023-04-15T12:22:11.526Z,9.54
2023-04-15T12:24:40.275Z,9.71
2023-04-15T12:27:11.486Z,9.83
2023-04-15T12:29:41.380Z,9.74
2023-04-15T12:32:10.937Z,9.81
2023-04-15T12:34:44.766Z,9.87
2023-04-15T12:37:13.131Z,9.89
2023-04-15T12:39:43.158Z,9.93
2023-04-15T12:42:12.148Z,9.85
2023-04-15T12:44:40.321Z,9.86
2023-04-15T12:47:10.060Z,9.91
2023-04-15T12:49:39.919Z,9.95
2023-04-15T12:52:07.650Z,9.86
2023-04-15T12:54:34.953Z,9.91
2023-04-15T12:57:07.441Z,10.08
2023-04-15T12:59:36.068Z,10.19
2023-04-15T13:02:04.342Z,10.20
2023-04-15T13:04:31.891Z,10.21
2023-04-15T13:06:59.449Z,10.20
2023-04-15T13:09:26.860Z,10.05
2023-04-15T13:11:54.621Z,9.86
2023-04-15T13:14:22.050Z,9.94
2023-04-15T13:16:49.442Z,9.96
2023-04-15T13:19:16.760Z,9.95
2023-04-15T13:21:44.129Z,10.04
2023-04-15T13:24:11.372Z,9.94
2023-04-15T13:26:38.620Z,9.92
2023-04-15T13:29:05.909Z,9.85
2023-04-15T13:31:33.304Z,9.78
2023-04-15T13:34:00.876Z,9.86
2023-04-15T13:36:28.359Z,9.85
2023-04-15T13:38:55.642Z,9.92
2023-04-15T13:41:22.946Z,10.06
2023-04-15T13:43:50.182Z,10.18
2023-04-15T13:46:17.557Z,10.17
2023-04-15T13:48:44.999Z,10.25
2023-04-15T13:51:12.197Z,10.14
2023-04-15T13:53:39.850Z,10.21
2023-04-15T13:56:10.693Z,10.29
2023-04-15T13:58:38.530Z,10.31
2023-04-15T14:01:07.417Z,10.45
2023-04-15T14:03:36.175Z,10.58
2023-04-15T14:06:05.251Z,10.54
2023-04-15T14:08:33.517Z,10.47
2023-04-15T14:11:00.906Z,10.53
2023-04-15T14:13:28.354Z,10.50
2023-04-15T14:15:57.496Z,10.75
2023-04-15T14:18:24.901Z,10.76
2023-04-15T14:20:52.168Z,10.88
2023-04-15T14:23:19.706Z,10.96
2023-04-15T14:25:48.288Z,11.08
2023-04-15T14:28:16.592Z,11.19
2023-04-15T14:30:44.034Z,11.27
2023-04-15T14:33:11.464Z,11.18
2023-04-15T14:35:39.367Z,11.09
2023-04-15T14:38:06.560Z,10.99
2023-04-15T14:40:34.224Z,10.95
2023-04-15T14:43:01.570Z,10.84
2023-04-15T14:45:30.508Z,10.75
2023-04-15T14:47:58.868Z,10.71
2023-04-15T14:50:26.348Z,10.65
2023-04-15T14:52:53.799Z,10.44
2023-04-15T14:55:20.954Z,10.45
2023-04-15T14:57:48.337Z,10.36
2023-04-15T15:00:16.452Z,10.31
2023-04-15T15:02:44.115Z,10.29
2023-04-15T15:05:12.150Z,10.20
2023-04-15T15:07:40.196Z,10.15
2023-04-15T15:10:09.091Z,10.08
2023-04-15T15:12:36.428Z,10.04
2023-04-15T15:15:12.162Z,10.15
2023-04-15T15:17:43.566Z,10.13
2023-04-15T15:20:11.260Z,10.06
2023-04-15T15:22:38.643Z,10.06
2023-04-15T15:25:06.449Z,9.97
2023-04-15T15:27:33.798Z,9.96
2023-04-15T15:30:01.505Z,9.89
2023-04-15T15:32:29.137Z,9.94
2023-04-15T15:34:56.584Z,9.95
2023-04-15T15:37:23.942Z,9.81
2023-04-15T15:39:53.632Z,9.74
2023-04-15T15:42:20.886Z,9.71
2023-04-15T15:44:48.128Z,9.79
2023-04-15T15:47:21.269Z,9.90
2023-04-15T15:49:48.844Z,10.01
2023-04-15T15:52:16.290Z,10.15
2023-04-15T15:54:43.626Z,10.22
2023-04-15T15:57:11.430Z,10.06
2023-04-15T15:59:38.699Z,10.34
2023-04-15T16:02:06.057Z,10.35
2023-04-15T16:04:33.513Z,10.25
2023-04-15T16:07:00.910Z,10.26
2023-04-15T16:09:28.269Z,10.24
2023-04-15T16:11:55.621Z,10.07
2023-04-15T16:14:24.582Z,9.96
2023-04-15T16:16:53.323Z,9.83
2023-04-15T16:19:21.657Z,9.78
2023-04-15T16:21:49.313Z,9.69
2023-04-15T16:24:16.667Z,9.61
2023-04-15T16:26:43.839Z,9.48
2023-04-15T16:29:11.197Z,9.45
2023-04-15T16:31:38.601Z,9.43
2023-04-15T16:34:06.508Z,9.34
2023-04-15T16:36:36.733Z,9.39
2023-04-15T16:39:04.397Z,9.37
2023-04-15T16:41:34.308Z,9.35
2023-04-15T16:44:02.315Z,9.27
2023-04-15T16:46:29.746Z,9.32
2023-04-15T16:48:57.379Z,9.26
2023-04-15T16:51:24.659Z,9.23
2023-04-15T16:53:51.883Z,9.19
2023-04-15T16:56:19.793Z,9.19
2023-04-15T16:58:47.137Z,9.07
2023-04-15T17:01:14.743Z,9.02
2023-04-15T17:03:42.214Z,8.92
2023-04-15T17:06:10.201Z,8.92
2023-04-15T17:08:37.933Z,8.82
2023-04-15T17:11:05.796Z,8.90
2023-04-15T17:13:33.094Z,8.89
2023-04-15T17:16:01.071Z,8.91
2023-04-15T17:18:29.167Z,8.99
2023-04-15T17:20:57.215Z,8.93
2023-04-15T17:23:25.854Z,8.93
2023-04-15T17:25:53.826Z,8.95
2023-04-15T17:28:21.658Z,8.87
2023-04-15T17:30:49.148Z,8.75
2023-04-15T17:33:54.049Z,8.81
2023-04-15T17:36:04.679Z,8.71
2023-04-15T17:38:32.603Z,8.69
2023-04-15T17:41:00.408Z,8.63
2023-04-15T17:43:27.725Z,8.70
2023-04-15T17:45:56.199Z,8.48
2023-04-15T17:48:26.226Z,8.49
2023-04-15T17:50:53.885Z,8.51
2023-04-15T17:53:21.366Z,8.52
2023-04-15T17:55:48.670Z,8.48
2023-04-15T17:58:15.874Z,8.42
2023-04-15T18:00:43.218Z,8.33
2023-04-15T18:03:10.694Z,8.37
2023-04-15T18:05:40.323Z,8.33
2023-04-15T18:08:09.960Z,8.29
2023-04-15T18:10:40.006Z,8.25
2023-04-15T18:13:07.376Z,8.22
2023-04-15T18:15:35.318Z,8.17
2023-04-15T18:18:03.506Z,8.06
2023-04-15T18:20:30.994Z,8.08
2023-04-15T18:22:58.263Z,8.03
2023-04-15T18:25:26.235Z,7.99
2023-04-15T18:27:55.586Z,7.97
2023-04-15T18:30:23.121Z,7.92
2023-04-15T18:32:50.485Z,7.84
2023-04-15T18:35:17.767Z,7.72
2023-04-15T18:37:45.097Z,7.71
2023-04-15T18:40:12.403Z,7.67
2023-04-15T18:42:39.834Z,7.58
2023-04-15T18:45:07.849Z,7.53
2023-04-15T18:47:35.264Z,7.52
2023-04-15T18:50:02.740Z,7.47
2023-04-15T18:52:30.658Z,7.41
2023-04-15T18:54:58.205Z,7.37
2023-04-15T18:57:31.075Z,7.35
2023-04-15T19:00:02.714Z,7.32
2023-04-15T19:02:30.073Z,7.29
2023-04-15T19:04:57.390Z,7.25
2023-04-15T19:07:24.915Z,7.20
2023-04-15T19:09:53.239Z,7.16
2023-04-15T19:12:20.454Z,7.15
2023-04-15T19:14:47.847Z,7.12
2023-04-15T19:17:15.476Z,7.07
2023-04-15T19:19:42.921Z,7.03
2023-04-15T19:22:10.448Z,6.99
2023-04-15T19:24:37.802Z,6.98
2023-04-15T19:27:05.042Z,6.96
2023-04-15T19:29:32.874Z,6.96
2023-04-15T19:32:00.255Z,6.95
2023-04-15T19:34:27.600Z,6.94
2023-04-15T19:36:54.877Z,6.96
2023-04-15T19:39:22.176Z,6.87
2023-04-15T19:41:49.397Z,6.84
2023-04-15T19:44:16.836Z,6.76
2023-04-15T19:46:44.095Z,6.69
2023-04-15T19:49:11.704Z,6.66
2023-04-15T19:51:38.961Z,6.61
2023-04-15T19:54:06.489Z,6.57
2023-04-15T19:56:34.550Z,6.48
2023-04-15T19:59:02.289Z,6.44
2023-04-15T20:01:29.692Z,6.39
2023-04-15T20:03:57.295Z,6.33
2023-04-15T20:06:24.786Z,6.27
2023-04-15T20:08:52.446Z,6.23
2023-04-15T20:11:19.896Z,6.22
2023-04-15T20:13:47.100Z,6.15
2023-04-15T20:16:14.532Z,6.16
2023-04-15T20:18:42.817Z,6.05
2023-04-15T20:21:10.689Z,6.02
2023-04-15T20:23:38.112Z,5.97
2023-04-15T20:26:05.387Z,5.93
2023-04-15T20:28:32.920Z,5.84
2023-04-15T20:31:03.726Z,5.82
2023-04-15T20:33:31.094Z,5.81
2023-04-15T20:35:58.606Z,5.76
2023-04-15T20:38:25.895Z,5.73
2023-04-15T20:40:53.239Z,5.66
2023-04-15T20:43:20.659Z,5.61
2023-04-15T20:45:49.185Z,5.53
2023-04-15T20:48:16.480Z,5.49
2023-04-15T20:50:43.645Z,5.44
2023-04-15T20:53:10.899Z,5.43
2023-04-15T20:55:38.305Z,5.41
2023-04-15T20:58:05.535Z,5.36
2023-04-15T21:00:32.990Z,5.31
2023-04-15T21:03:00.476Z,5.31
2023-04-15T21:05:27.940Z,5.33
2023-04-15T21:07:55.392Z,5.28
2023-04-15T21:10:22.839Z,5.22
2023-04-15T21:12:50.097Z,5.21
2023-04-15T21:15:17.694Z,5.11
2023-04-15T21:17:44.944Z,5.12
2023-04-15T21:20:12.673Z,5.09
2023-04-15T21:22:39.953Z,5.05
2023-04-15T21:25:07.833Z,4.99
2023-04-15T21:27:35.445Z,4.99
2023-04-15T21:30:03.774Z,4.94
2023-04-15T21:32:31.213Z,4.86
2023-04-15T21:34:58.429Z,4.80
2023-04-15T21:37:25.658Z,4.81
2023-04-15T21:39:52.936Z,4.83
2023-04-15T21:42:20.213Z,4.78
2023-04-15T21:44:47.378Z,4.79
2023-04-15T21:47:14.721Z,4.76
2023-04-15T21:49:42.154Z,4.70
2023-04-15T21:52:10.237Z,4.65
2023-04-15T21:54:37.900Z,4.55
2023-04-15T21:57:05.227Z,4.59
2023-04-15T21:59:32.401Z,4.54
2023-04-15T22:02:00.143Z,4.48
2023-04-15T22:04:27.876Z,4.45
2023-04-15T22:06:55.385Z,4.43
2023-04-15T22:09:22.998Z,4.42
2023-04-15T22:11:50.551Z,4.42
2023-04-15T22:14:17.750Z,4.42
2023-04-15T22:16:45.120Z,4.37
2023-04-15T22:19:12.470Z,4.34
2023-04-15T22:21:39.701Z,4.26
2023-04-15T22:24:32.074Z,4.24
2023-04-15T22:26:54.426Z,4.25
2023-04-15T22:29:22.358Z,4.26
2023-04-15T22:31:49.559Z,4.21
2023-04-15T22:34:17.024Z,4.19
2023-04-15T22:36:44.295Z,4.21
2023-04-15T22:39:11.460Z,4.19
2023-04-15T22:41:38.654Z,4.16
2023-04-15T22:44:05.876Z,4.13
2023-04-15T22:46:33.537Z,4.11
2023-04-15T22:49:00.924Z,4.08
2023-04-15T22:51:28.566Z,4.08
2023-04-15T22:53:56.331Z,4.08
2023-04-15T22:56:23.802Z,4.03
2023-04-15T22:58:52.083Z,4.01
2023-04-15T23:01:19.617Z,3.99
2023-04-15T23:03:56.242Z,3.97
2023-04-15T23:06:30.362Z,3.92
2023-04-15T23:08:57.590Z,3.95
2023-04-15T23:11:24.957Z,3.94
2023-04-15T23:13:52.355Z,3.90
2023-04-15T23:16:19.609Z,3.87
2023-04-15T23:18:46.829Z,3.83
2023-04-15T23:21:14.297Z,3.86
2023-04-15T23:23:41.472Z,3.83
2023-04-15T23:26:09.365Z,3.84
2023-04-15T23:28:36.510Z,3.84
2023-04-15T23:31:03.813Z,3.85
2023-04-15T23:33:31.109Z,3.83
2023-04-15T23:35:58.442Z,3.76
2023-04-15T23:38:25.641Z,3.79
2023-04-15T23:40:52.987Z,3.79
2023-04-15T23:43:20.520Z,3.73
2023-04-15T23:45:47.969Z,3.70
2023-04-15T23:48:15.227Z,3.70
2023-04-15T23:50:42.430Z,3.67
2023-04-15T23:53:09.684Z,3.67
2023-04-15T23:55:36.908Z,3.65
2023-04-15T23:58:04.104Z,3.62
